createdAt,value
2023-04-10T00:01:02.332Z,12.90
2023-04-10T00:03:32.905Z,20.53
2023-04-10T00:06:01.536Z,14.53
2023-04-10T00:08:29.650Z,26.10
2023-04-10T00:10:57.818Z,12.57
2023-04-10T00:13:26.590Z,23.10
2023-04-10T00:15:54.801Z,18.57
2023-04-10T00:18:23.038Z,11.97
2023-04-10T00:20:52.836Z,9.20
2023-04-10T00:23:20.990Z,11.67
2023-04-10T00:25:49.649Z,13.80
2023-04-10T00:28:18.218Z,12.93
2023-04-10T00:30:46.385Z,21.63
2023-04-10T00:33:14.656Z,10.23
2023-04-10T00:35:43.226Z,9.17
2023-04-10T00:38:13.205Z,12.47
2023-04-10T00:40:42.013Z,11.73
2023-04-10T00:43:10.695Z,14.17
2023-04-10T00:45:39.765Z,14.97
2023-04-10T00:48:08.953Z,13.63
2023-04-10T00:50:37.952Z,15.90
2023-04-10T00:53:06.451Z,9.10
2023-04-10T00:55:36.024Z,11.43
2023-04-10T00:58:04.864Z,11.23
2023-04-10T01:00:33.087Z,10.90
2023-04-10T01:03:01.817Z,14.30
2023-04-10T01:05:36.525Z,12.30
2023-04-10T01:08:18.524Z,13.43
2023-04-10T01:10:53.898Z,12.77
2023-04-10T01:13:26.788Z,8.63
2023-04-10T01:16:02.966Z,11.47
2023-04-10T01:18:37.872Z,10.87
2023-04-10T01:21:09.488Z,10.87
2023-04-10T01:24:00.817Z,13.37
2023-04-10T01:26:43.285Z,11.97
2023-04-10T01:29:15.994Z,14.07
2023-04-10T01:31:50.679Z,14.40
2023-04-10T01:34:23.525Z,20.87
2023-04-10T01:37:02.692Z,8.97
2023-04-10T01:39:32.508Z,8.47
2023-04-10T01:42:01.810Z,10.10
2023-04-10T01:44:33.437Z,18.37
2023-04-10T01:47:03.583Z,11.73
2023-04-10T01:49:32.823Z,10.40
2023-04-10T01:52:03.172Z,7.20
2023-04-10T01:54:34.631Z,8.90
2023-04-10T01:57:05.446Z,8.17
2023-04-10T01:59:35.099Z,12.17
2023-04-10T02:02:04.882Z,10.70
2023-04-10T02:04:33.616Z,8.73
2023-04-10T02:07:05.696Z,7.60
2023-04-10T02:09:44.812Z,14.73
2023-04-10T02:12:18.043Z,13.80
2023-04-10T02:14:50.710Z,10.43
2023-04-10T02:17:24.643Z,8.03
2023-04-10T02:19:54.748Z,7.67
2023-04-10T02:22:25.634Z,17.77
2023-04-10T02:24:54.285Z,8.13
2023-04-10T02:27:30.084Z,11.67
2023-04-10T02:29:59.736Z,7.97
2023-04-10T02:32:28.507Z,10.83
2023-04-10T02:34:57.383Z,11.27
2023-04-10T02:37:26.039Z,9.40
2023-04-10T02:39:55.783Z,12.67
2023-04-10T02:42:24.334Z,10.13
2023-04-10T02:44:52.555Z,15.27
2023-04-10T02:47:22.516Z,12.63
2023-04-10T02:49:50.741Z,10.97
2023-04-10T02:52:19.004Z,9.63
2023-04-10T02:54:47.748Z,8.77
2023-04-10T02:57:17.840Z,8.03
2023-04-10T02:59:46.147Z,10.57
2023-04-10T03:02:14.469Z,9.87
2023-04-10T03:04:44.133Z,9.13
2023-04-10T03:07:12.503Z,20.80
2023-04-10T03:09:41.030Z,10.67
2023-04-10T03:12:09.611Z,13.37
2023-04-10T03:14:37.775Z,12.00
2023-04-10T03:17:06.412Z,15.27
2023-04-10T03:19:34.728Z,15.07
2023-04-10T03:22:04.403Z,10.30
2023-04-10T03:24:32.929Z,11.23
2023-04-10T03:27:01.707Z,13.77
2023-04-10T03:29:29.869Z,11.63
2023-04-10T03:31:58.714Z,11.60
2023-04-10T03:34:27.000Z,15.23
2023-04-10T03:36:55.265Z,14.67
2023-04-10T03:39:25.129Z,16.00
2023-04-10T03:41:53.484Z,13.37
2023-04-10T03:44:22.651Z,16.63
2023-04-10T03:46:51.716Z,10.67
2023-04-10T03:49:20.106Z,15.87
2023-04-10T03:51:48.318Z,12.30
2023-04-10T03:54:16.587Z,10.63
2023-04-10T03:56:46.415Z,9.23
2023-04-10T03:59:14.554Z,10.13
2023-04-10T04:01:42.998Z,13.57
2023-04-10T04:04:11.860Z,10.83
2023-04-10T04:06:40.502Z,12.33
2023-04-10T04:09:09.037Z,11.80
2023-04-10T04:11:38.708Z,11.00
2023-04-10T04:14:08.310Z,21.83
2023-04-10T04:16:36.827Z,16.63
2023-04-10T04:19:05.501Z,13.77
2023-04-10T04:21:33.858Z,18.47
2023-04-10T04:24:02.091Z,19.70
2023-04-10T04:26:30.425Z,7.63
2023-04-10T04:28:58.772Z,12.93
2023-04-10T04:31:32.610Z,15.30
2023-04-10T04:34:01.212Z,12.43
2023-04-10T04:36:30.019Z,11.17
2023-04-10T04:38:58.384Z,15.57
2023-04-10T04:41:26.634Z,27.73
2023-04-10T04:43:55.955Z,24.37
2023-04-10T04:46:24.983Z,11.03
2023-04-10T04:48:54.713Z,16.80
2023-04-10T04:51:23.457Z,18.23
2023-04-10T04:53:51.989Z,31.53
2023-04-10T04:56:20.482Z,20.70
2023-04-10T04:58:48.758Z,21.50
2023-04-10T05:01:17.107Z,12.93
2023-04-10T05:03:45.531Z,10.40
2023-04-10T05:06:15.505Z,16.17
2023-04-10T05:08:43.855Z,13.90
2023-04-10T05:11:12.102Z,20.77
2023-04-10T05:13:40.520Z,12.87
2023-04-10T05:16:10.050Z,11.60
2023-04-10T05:18:38.357Z,15.47
2023-04-10T05:21:07.294Z,11.83
2023-04-10T05:23:37.410Z,15.50
2023-04-10T05:26:06.145Z,13.10
2023-04-10T05:28:34.826Z,11.27
2023-04-10T05:31:03.155Z,11.60
2023-04-10T05:33:31.293Z,17.47
2023-04-10T05:35:59.886Z,10.73
2023-04-10T05:38:28.563Z,12.93
2023-04-10T05:40:58.246Z,10.37
2023-04-10T05:43:26.768Z,17.97
2023-04-10T05:45:55.088Z,10.07
2023-04-10T05:48:26.207Z,12.67
2023-04-10T05:50:54.535Z,13.90
2023-04-10T05:53:25.786Z,15.60
2023-04-10T05:55:56.375Z,25.87
2023-04-10T05:58:26.539Z,16.30
2023-04-10T06:00:54.882Z,20.27
2023-04-10T06:03:24.034Z,15.13
2023-04-10T06:05:52.810Z,16.13
2023-04-10T06:08:22.810Z,11.20
2023-04-10T06:10:51.188Z,20.63
2023-04-10T06:13:20.067Z,17.17
2023-04-10T06:15:49.645Z,14.17
2023-04-10T06:18:17.937Z,16.90
2023-04-10T06:20:46.844Z,16.83
2023-04-10T06:23:15.929Z,13.80
2023-04-10T06:25:44.919Z,15.00
2023-04-10T06:28:13.404Z,18.90
2023-04-10T06:30:41.597Z,19.43
2023-04-10T06:33:11.245Z,21.10
2023-04-10T06:35:40.120Z,18.47
2023-04-10T06:38:09.085Z,17.53
2023-04-10T06:40:37.390Z,19.80
2023-04-10T06:43:05.883Z,16.30
2023-04-10T06:45:34.075Z,18.00
2023-04-10T06:48:02.498Z,13.83
2023-04-10T06:50:33.459Z,14.20
2023-04-10T06:53:01.739Z,17.33
2023-04-10T06:55:30.105Z,17.73
2023-04-10T06:57:58.712Z,15.90
2023-04-10T07:00:27.106Z,25.43
2023-04-10T07:02:55.516Z,15.70
2023-04-10T07:05:23.897Z,12.33
2023-04-10T07:07:53.369Z,17.83
2023-04-10T07:10:21.748Z,8.60
2023-04-10T07:12:50.537Z,17.97
2023-04-10T07:15:18.815Z,9.20
2023-04-10T07:17:49.882Z,14.37
2023-04-10T07:20:18.427Z,11.80
2023-04-10T07:22:46.653Z,13.47
2023-04-10T07:25:16.662Z,15.03
2023-04-10T07:27:45.289Z,8.90
2023-04-10T07:30:13.980Z,10.80
2023-04-10T07:32:42.432Z,10.87
2023-04-10T07:35:11.245Z,15.63
2023-04-10T07:37:40.240Z,13.57
2023-04-10T07:40:09.887Z,13.73
2023-04-10T07:42:39.813Z,5.93
2023-04-10T07:45:09.295Z,10.70
2023-04-10T07:47:37.503Z,6.93
2023-04-10T07:50:06.943Z,7.77
2023-04-10T07:52:35.217Z,6.80
2023-04-10T07:55:03.694Z,13.60
2023-04-10T07:57:32.512Z,12.70
2023-04-10T08:00:02.048Z,12.97
2023-04-10T08:02:30.641Z,5.60
2023-04-10T08:04:59.123Z,16.00
2023-04-10T08:07:27.456Z,6.60
2023-04-10T08:09:55.615Z,11.27
2023-04-10T08:12:24.498Z,5.30
2023-04-10T08:14:52.779Z,9.70
2023-04-10T08:17:22.255Z,8.07
2023-04-10T08:19:50.881Z,7.00
2023-04-10T08:22:19.123Z,7.80
2023-04-10T08:24:47.354Z,7.80
2023-04-10T08:27:16.493Z,7.37
2023-04-10T08:29:44.886Z,5.70
2023-04-10T08:32:13.164Z,7.53
2023-04-10T08:34:43.144Z,6.87
2023-04-10T08:37:12.345Z,26.63
2023-04-10T08:39:40.818Z,6.03
2023-04-10T08:42:09.450Z,7.40
2023-04-10T08:44:39.149Z,7.57
2023-04-10T08:47:08.035Z,6.20
2023-04-10T08:49:44.926Z,5.17
2023-04-10T08:52:17.547Z,5.73
2023-04-10T08:54:55.376Z,6.17
2023-04-10T08:57:23.906Z,14.77
2023-04-10T08:59:53.429Z,13.00
2023-04-10T09:02:23.062Z,7.67
2023-04-10T09:04:55.272Z,2.67
2023-04-10T09:07:25.093Z,4.63
2023-04-10T09:09:53.356Z,5.30
2023-04-10T09:12:21.556Z,3.73
2023-04-10T09:14:53.742Z,8.50
2023-04-10T09:17:23.056Z,5.63
2023-04-10T09:19:54.661Z,7.63
2023-04-10T09:22:33.354Z,3.97
2023-04-10T09:25:03.131Z,5.20
2023-04-10T09:27:35.041Z,1.53
2023-04-10T09:30:04.616Z,10.53
2023-04-10T09:32:41.952Z,7.67
2023-04-10T09:35:11.303Z,8.33
2023-04-10T09:37:42.411Z,5.13
2023-04-10T09:40:22.162Z,3.97
2023-04-10T09:42:50.552Z,3.47
2023-04-10T09:45:20.570Z,6.97
2023-04-10T09:48:03.588Z,5.13
2023-04-10T09:50:39.586Z,2.73
2023-04-10T09:53:12.454Z,2.50
2023-04-10T09:55:40.779Z,2.90
2023-04-10T09:58:09.736Z,8.67
2023-04-10T10:00:42.070Z,7.03
2023-04-10T10:03:12.738Z,4.23
2023-04-10T10:05:43.699Z,9.30
2023-04-10T10:08:14.912Z,3.60
2023-04-10T10:10:47.217Z,4.77
2023-04-10T10:13:22.490Z,5.30
2023-04-10T10:15:59.263Z,4.60
2023-04-10T10:18:36.469Z,4.30
2023-04-10T10:21:05.922Z,2.90
2023-04-10T10:23:36.555Z,4.90
2023-04-10T10:26:07.691Z,2.23
2023-04-10T10:28:37.201Z,4.30
2023-04-10T10:31:06.798Z,2.67
2023-04-10T10:33:37.721Z,2.03
2023-04-10T10:36:06.765Z,7.70
2023-04-10T10:38:40.049Z,2.33
2023-04-10T10:41:17.045Z,2.10
2023-04-10T10:43:56.468Z,5.83
2023-04-10T10:46:33.764Z,3.33
2023-04-10T10:49:02.802Z,2.57
2023-04-10T10:51:48.065Z,2.53
2023-04-10T10:54:37.680Z,6.13
2023-04-10T10:57:43.544Z,1.70
2023-04-10T11:00:13.010Z,3.10
2023-04-10T11:02:41.349Z,2.97
2023-04-10T11:05:09.990Z,7.00
2023-04-10T11:08:09.627Z,3.83
2023-04-10T11:11:05.222Z,6.73
2023-04-10T11:13:34.028Z,2.37
2023-04-10T11:16:03.681Z,1.40
2023-04-10T11:19:16.393Z,2.37
2023-04-10T11:22:09.031Z,1.90
2023-04-10T11:25:00.276Z,3.60
2023-04-10T11:27:48.728Z,3.37
2023-04-10T11:30:44.162Z,3.27
2023-04-10T11:33:20.079Z,2.70
2023-04-10T11:35:49.035Z,4.90
2023-04-10T11:38:18.986Z,3.37
2023-04-10T11:41:04.978Z,5.97
2023-04-10T11:43:35.399Z,2.30
2023-04-10T11:46:06.031Z,1.53
2023-04-10T11:48:34.897Z,1.13
2023-04-10T11:51:09.616Z,2.90
2023-04-10T11:53:37.848Z,1.70
2023-04-10T11:56:07.821Z,2.40
2023-04-10T11:58:37.967Z,5.10
2023-04-10T12:01:06.793Z,4.03
2023-04-10T12:03:40.239Z,2.13
2023-04-10T12:06:11.211Z,8.50
2023-04-10T12:08:41.738Z,3.63
2023-04-10T12:11:11.784Z,5.03
2023-04-10T12:13:41.670Z,2.13
2023-04-10T12:16:11.960Z,4.20
2023-04-10T12:18:40.716Z,0.90
2023-04-10T12:21:09.255Z,5.00
2023-04-10T12:23:40.115Z,12.53
2023-04-10T12:26:16.262Z,6.50
2023-04-10T12:28:53.573Z,1.30
2023-04-10T12:31:29.404Z,1.60
2023-04-10T12:33:58.697Z,4.63
2023-04-10T12:36:30.209Z,3.23
2023-04-10T12:38:59.283Z,3.40
2023-04-10T12:41:29.713Z,1.77
2023-04-10T12:44:10.482Z,3.03
2023-04-10T12:46:39.755Z,5.37
2023-04-10T12:49:12.968Z,0.80
2023-04-10T12:51:48.856Z,4.03
2023-04-10T12:54:31.465Z,21.97
2023-04-10T12:57:00.684Z,3.87
2023-04-10T12:59:30.593Z,6.50
2023-04-10T13:01:58.967Z,3.30
2023-04-10T13:04:28.351Z,5.73
2023-04-10T13:06:57.168Z,4.30
2023-04-10T13:09:25.698Z,1.80
2023-04-10T13:11:53.955Z,7.37
2023-04-10T13:14:22.712Z,8.17
2023-04-10T13:16:52.887Z,5.87
2023-04-10T13:19:21.617Z,1.23
2023-04-10T13:21:50.778Z,1.57
2023-04-10T13:24:19.448Z,1.00
2023-04-10T13:26:47.752Z,1.17
2023-04-10T13:29:16.107Z,4.27
2023-04-10T13:31:44.874Z,1.40
2023-04-10T13:34:14.613Z,3.43
2023-04-10T13:36:42.918Z,1.23
2023-04-10T13:39:11.555Z,2.00
2023-04-10T13:41:39.808Z,8.03
2023-04-10T13:44:08.003Z,3.90
2023-04-10T13:46:36.540Z,13.13
2023-04-10T13:49:05.195Z,3.13
2023-04-10T13:51:34.768Z,3.53
2023-04-10T13:54:05.250Z,4.90
2023-04-10T13:56:33.614Z,8.33
2023-04-10T13:59:01.978Z,1.50
2023-04-10T14:01:30.690Z,2.10
2023-04-10T14:03:59.343Z,6.37
2023-04-10T14:06:28.290Z,6.90
2023-04-10T14:08:58.256Z,2.87
2023-04-10T14:11:26.758Z,1.50
2023-04-10T14:13:55.082Z,1.30
2023-04-10T14:16:23.398Z,3.03
2023-04-10T14:18:52.074Z,7.53
2023-04-10T14:21:20.808Z,2.90
2023-04-10T14:23:49.218Z,1.30
2023-04-10T14:26:18.863Z,3.33
2023-04-10T14:28:47.138Z,1.90
2023-04-10T14:31:15.630Z,2.40
2023-04-10T14:33:44.279Z,0.80
2023-04-10T14:36:12.609Z,0.93
2023-04-10T14:38:40.926Z,2.57
2023-04-10T14:41:09.286Z,2.77
2023-04-10T14:43:39.205Z,1.87
2023-04-10T14:46:08.189Z,3.10
2023-04-10T14:48:36.771Z,2.27
2023-04-10T14:51:05.653Z,1.70
2023-04-10T14:53:34.241Z,2.90
2023-04-10T14:56:02.924Z,4.83
2023-04-10T14:58:31.217Z,1.90
2023-04-10T15:01:00.887Z,1.90
2023-04-10T15:03:29.298Z,9.60
2023-04-10T15:06:01.365Z,9.97
2023-04-10T15:08:29.676Z,7.43
2023-04-10T15:10:57.916Z,2.53
2023-04-10T15:13:26.358Z,1.20
2023-04-10T15:15:55.427Z,5.27
2023-04-10T15:18:25.591Z,2.97
2023-04-10T15:20:55.722Z,7.60
2023-04-10T15:23:23.922Z,3.63
2023-04-10T15:25:52.415Z,2.53
2023-04-10T15:28:20.903Z,2.80
2023-04-10T15:30:50.134Z,4.13
2023-04-10T15:33:18.432Z,3.60
2023-04-10T15:35:51.127Z,26.90
2023-04-10T15:38:19.376Z,27.20
2023-04-10T15:40:47.557Z,6.60
2023-04-10T15:43:16.598Z,3.60
2023-04-10T15:45:44.832Z,0.80
2023-04-10T15:48:13.312Z,9.40
2023-04-10T15:50:43.360Z,10.70
2023-04-10T15:53:12.971Z,2.30
2023-04-10T15:55:41.526Z,1.70
2023-04-10T15:58:10.818Z,4.60
2023-04-10T16:00:38.966Z,2.00
2023-04-10T16:03:07.574Z,1.53
2023-04-10T16:05:37.215Z,2.53
2023-04-10T16:08:05.729Z,2.00
2023-04-10T16:10:35.758Z,1.23
2023-04-10T16:13:07.132Z,2.80
2023-04-10T16:15:36.906Z,2.23
2023-04-10T16:18:06.414Z,3.23
2023-04-10T16:20:35.150Z,3.00
2023-04-10T16:23:03.326Z,9.40
2023-04-10T16:25:31.839Z,1.97
2023-04-10T16:28:05.469Z,2.63
2023-04-10T16:30:34.138Z,4.10
2023-04-10T16:33:02.580Z,3.63
2023-04-10T16:35:30.984Z,6.97
2023-04-10T16:37:59.305Z,6.53
2023-04-10T16:40:32.415Z,3.33
2023-04-10T16:43:02.770Z,1.40
2023-04-10T16:45:30.942Z,3.57
2023-04-10T16:47:59.261Z,4.63
2023-04-10T16:50:27.724Z,2.97
2023-04-10T16:52:56.017Z,3.97
2023-04-10T16:55:24.271Z,7.83
2023-04-10T16:57:53.471Z,2.47
2023-04-10T17:00:23.255Z,5.33
2023-04-10T17:02:51.511Z,3.30
2023-04-10T17:05:20.022Z,7.13
2023-04-10T17:07:48.604Z,1.83
2023-04-10T17:10:17.162Z,3.57
2023-04-10T17:12:45.897Z,9.37
2023-04-10T17:15:14.327Z,3.40
2023-04-10T17:17:44.407Z,9.53
2023-04-10T17:20:13.609Z,21.13
2023-04-10T17:22:41.793Z,14.07
2023-04-10T17:25:11.201Z,3.03
2023-04-10T17:27:40.841Z,6.73
2023-04-10T17:30:13.706Z,8.23
2023-04-10T17:32:43.563Z,9.37
2023-04-10T17:35:11.789Z,2.57
2023-04-10T17:37:39.958Z,5.37
2023-04-10T17:40:09.739Z,4.70
2023-04-10T17:42:37.930Z,4.47
2023-04-10T17:45:07.068Z,5.50
2023-04-10T17:47:35.721Z,3.20
2023-04-10T17:50:06.149Z,3.70
2023-04-10T17:52:34.488Z,3.17
2023-04-10T17:55:02.680Z,8.70
2023-04-10T17:57:30.846Z,4.07
2023-04-10T17:59:59.147Z,3.30
2023-04-10T18:02:27.533Z,7.63
2023-04-10T18:04:58.214Z,3.93
2023-04-10T18:07:28.178Z,3.57
2023-04-10T18:09:56.462Z,3.97
2023-04-10T18:12:24.720Z,6.23
2023-04-10T18:14:53.133Z,3.20
2023-04-10T18:17:21.671Z,3.90
2023-04-10T18:19:51.455Z,7.20
2023-04-10T18:22:20.401Z,7.23
2023-04-10T18:24:50.605Z,8.67
2023-04-10T18:27:19.064Z,10.70
2023-04-10T18:29:47.882Z,7.60
2023-04-10T18:32:16.065Z,5.97
2023-04-10T18:34:44.380Z,5.33
2023-04-10T18:37:12.580Z,12.40
2023-04-10T18:39:40.795Z,8.80
2023-04-10T18:42:11.685Z,3.60
2023-04-10T18:44:40.135Z,13.90
2023-04-10T18:47:08.444Z,6.77
2023-04-10T18:49:36.681Z,24.00
2023-04-10T18:52:05.155Z,16.07
2023-04-10T18:54:34.637Z,5.73
2023-04-10T18:57:02.936Z,9.27
2023-04-10T18:59:33.026Z,5.87
2023-04-10T19:02:01.336Z,5.13
2023-04-10T19:04:29.750Z,6.13
2023-04-10T19:06:57.996Z,5.10
2023-04-10T19:09:26.265Z,8.23
2023-04-10T19:11:55.059Z,6.13
2023-04-10T19:14:23.231Z,10.13
2023-04-10T19:16:52.823Z,7.90
2023-04-10T19:19:21.124Z,8.50
2023-04-10T19:21:49.808Z,15.50
2023-04-10T19:24:17.959Z,11.40
2023-04-10T19:26:46.171Z,5.23
2023-04-10T19:29:14.657Z,5.80
2023-04-10T19:31:42.850Z,6.23
2023-04-10T19:34:12.600Z,7.00
2023-04-10T19:36:42.137Z,10.43
2023-04-10T19:39:10.418Z,8.80
2023-04-10T19:41:42.071Z,14.30
2023-04-10T19:44:11.078Z,15.87
2023-04-10T19:46:39.377Z,11.50
2023-04-10T19:49:07.571Z,9.50
2023-04-10T19:51:37.194Z,9.70
2023-04-10T19:54:05.771Z,10.63
2023-04-10T19:56:37.022Z,5.17
2023-04-10T19:59:05.274Z,9.53
2023-04-10T20:01:34.644Z,11.17
2023-04-10T20:04:03.048Z,11.20
2023-04-10T20:06:31.895Z,18.70
2023-04-10T20:09:01.588Z,12.73
2023-04-10T20:11:30.686Z,17.77
2023-04-10T20:13:59.379Z,6.57
2023-04-10T20:16:27.773Z,10.17
2023-04-10T20:18:56.477Z,10.50
2023-04-10T20:21:25.143Z,6.63
2023-04-10T20:23:53.675Z,7.63
2023-04-10T20:26:25.661Z,11.13
2023-04-10T20:28:54.573Z,7.17
2023-04-10T20:31:22.968Z,10.50
2023-04-10T20:33:51.236Z,11.30
2023-04-10T20:36:19.873Z,9.40
2023-04-10T20:38:48.081Z,11.13
2023-04-10T20:41:16.244Z,7.43
2023-04-10T20:43:47.048Z,16.30
2023-04-10T20:46:15.292Z,12.30
2023-04-10T20:48:43.490Z,15.17
2023-04-10T20:51:12.256Z,8.07
2023-04-10T20:53:40.396Z,6.97
2023-04-10T20:56:08.982Z,15.30
2023-04-10T20:58:37.536Z,12.67
2023-04-10T21:01:10.175Z,13.97
2023-04-10T21:03:38.677Z,11.87
2023-04-10T21:06:07.964Z,8.23
2023-04-10T21:08:36.050Z,5.97
2023-04-10T21:11:04.338Z,12.47
2023-04-10T21:13:32.563Z,7.03
2023-04-10T21:16:00.714Z,11.60
2023-04-10T21:18:30.837Z,9.27
2023-04-10T21:20:59.102Z,12.80
2023-04-10T21:23:27.369Z,8.00
2023-04-10T21:25:56.398Z,7.00
2023-04-10T21:28:24.685Z,6.40
2023-04-10T21:30:52.867Z,9.57
2023-04-10T21:33:21.637Z,6.80
2023-04-10T21:35:51.342Z,5.90
2023-04-10T21:38:19.626Z,5.73
2023-04-10T21:40:52.266Z,15.40
2023-04-10T21:43:20.806Z,8.43
2023-04-10T21:45:49.204Z,6.60
2023-04-10T21:48:19.533Z,6.10
2023-04-10T21:50:48.282Z,5.67
2023-04-10T21:53:19.227Z,8.47
2023-04-10T21:55:47.823Z,12.63
2023-04-10T21:58:15.938Z,5.13
2023-04-10T22:00:47.253Z,7.40
2023-04-10T22:03:16.863Z,3.47
2023-04-10T22:05:45.994Z,3.73
2023-04-10T22:08:14.217Z,4.37
2023-04-10T22:10:45.767Z,14.83
2023-04-10T22:13:27.317Z,5.63
2023-04-10T22:15:58.196Z,5.87
2023-04-10T22:18:26.425Z,5.53
2023-04-10T22:20:54.586Z,7.07
2023-04-10T22:23:22.768Z,4.70
2023-04-10T22:25:52.436Z,4.23
2023-04-10T22:28:20.560Z,12.07
2023-04-10T22:30:49.364Z,5.67
2023-04-10T22:33:17.972Z,5.33
2023-04-10T22:35:47.331Z,6.03
2023-04-10T22:38:15.966Z,7.40
2023-04-10T22:40:44.608Z,7.00
2023-04-10T22:43:14.616Z,7.23
2023-04-10T22:45:43.939Z,5.37
2023-04-10T22:48:12.214Z,8.37
2023-04-10T22:50:41.056Z,7.33
2023-04-10T22:53:10.528Z,9.47
2023-04-10T22:55:39.149Z,7.30
2023-04-10T22:58:08.148Z,5.77
2023-04-10T23:00:38.120Z,8.60
2023-04-10T23:03:06.501Z,10.63
2023-04-10T23:05:35.295Z,5.07
2023-04-10T23:08:03.812Z,11.10
2023-04-10T23:10:31.982Z,6.40
2023-04-10T23:13:00.634Z,6.90
2023-04-10T23:15:29.336Z,8.90
2023-04-10T23:17:59.142Z,7.23
2023-04-10T23:20:27.563Z,11.37
2023-04-10T23:22:57.326Z,9.63
2023-04-10T23:25:25.699Z,4.83
2023-04-10T23:27:54.325Z,8.33
2023-04-10T23:30:22.661Z,11.43
2023-04-10T23:32:50.986Z,4.73
2023-04-10T23:35:21.128Z,6.30
2023-04-10T23:37:51.615Z,7.60
2023-04-10T23:40:20.620Z,7.63
2023-04-10T23:42:49.172Z,8.97
2023-04-10T23:45:17.361Z,7.10
2023-04-10T23:47:45.651Z,7.10
2023-04-10T23:50:13.911Z,6.33
2023-04-10T23:52:43.591Z,7.00
2023-04-10T23:55:12.126Z,7.33
2023-04-10T23:57:40.297Z,8.37
